• Join FlightAware (Why Join?)
  • Login
  • US Flag 
06:06AM EDT


 

Airport Tracker/Info


-or-


 

Live Flight TrackerFlight Track Log ✈ SWA2236 ✈ 20-Aug-2013 ✈ KOMA - KPHX

Flight Track Log - Related Links

Times and Time Zones

All times are in EDT time to prevent confusion due to time zone crossing. See the SWA2236 flight status page for this flight to view local times or setup timezone preferences in your user account.

Time Position Orientation Groundspeed Altitude Reporting Facility
EDT Latitude Longitude Course Direction KTS MPH feet Rate Location/Type
11:03AM 41.2372 -95.8736 172° South 211 243 3,900  Level Minneapolis Center
11:04AM 41.1681 -95.8706 178° South 269 310 6,200 2,820 Climbing Minneapolis Center
11:06AM 41.0836 -95.9278 207° Southwest 277 319 10,700 2,820 Climbing Minneapolis Center
11:07AM 41.0381 -96.0314 240° Southwest 307 353 13,100 2,640 Climbing Minneapolis Center
11:08AM 40.9856 -96.1519 240° Southwest 360 414 16,200 2,940 Climbing Minneapolis Center
11:09AM 40.9361 -96.2753 242° Southwest 376 433 19,200 2,700 Climbing Minneapolis Center
11:10AM 40.8850 -96.4033 242° Southwest 387 445 21,800 2,700 Climbing Minneapolis Center
11:11AM 40.8214 -96.5631 242° Southwest 403 464 24,800 2,460 Climbing Minneapolis Center
11:12AM 40.7653 -96.7019 242° Southwest 420 483 26,900 1,980 Climbing Minneapolis Center
11:13AM 40.7081 -96.8444 242° Southwest 432 497 29,000 1,920 Climbing Minneapolis Center
11:14AM 40.6497 -96.9892 242° Southwest 444 511 30,900 1,920 Climbing Minneapolis Center
11:15AM 40.5894 -97.1342 241° Southwest 450 518 33,000 1,500 Climbing Minneapolis Center
11:16AM 40.5294 -97.2786 241° Southwest 449 517 34,000 960 Climbing Minneapolis Center
11:17AM 40.4597 -97.4511 242° Southwest 451 519 35,000 360 Climbing Minneapolis Center
11:19AM 40.3650 -97.6806 242° Southwest 447 514 35,000  Level Denver Center
11:20AM 40.3164 -97.7986 242° Southwest 452 520 35,000 900 Level Denver Center
11:21AM 40.2397 -97.9772 241° Southwest 463 533 36,900 1,500 Climbing Denver Center
11:22AM 40.1539 -98.1806 241° Southwest 459 528 38,800 1,200 Climbing Minneapolis Center
11:23AM 40.0819 -98.3525 241° Southwest 454 522 40,000 540 Climbing Minneapolis Center
11:24AM 40.0211 -98.4939 241° Southwest 450 518 40,000  Level Minneapolis Center
11:25AM 39.9592 -98.6361 240° Southwest 449 517 40,000  Level Minneapolis Center
11:26AM 39.8978 -98.7800 241° Southwest 452 520 40,000  Level Minneapolis Center
11:27AM 39.8489 -98.8936 241° Southwest 451 519 40,000  Level Denver Center
11:28AM 39.7878 -99.0342 241° Southwest 447 514 40,000  Level Denver Center
11:29AM 39.7264 -99.1742 240° Southwest 447 514 40,000  Level Denver Center
11:30AM 39.6642 -99.3172 241° Southwest 451 519 40,000  Level Denver Center
11:31AM 39.5886 -99.4883 240° Southwest 454 522 40,000  Level Denver Center
11:32AM 39.5256 -99.6292 240° Southwest 454 522 40,000  Level Denver Center
11:33AM 39.4625 -99.7731 240° Southwest 455 524 40,000  Level Denver Center
11:35AM 39.4014 -99.9097 240° Southwest 456 525 40,000  Level Denver Center
11:36AM 39.3311 -100.0661 240° Southwest 452 520 40,000  Level Denver Center
11:37AM 39.2703 -100.2003 240° Southwest 450 518 40,000  Level Denver Center
11:38AM 39.2281 -100.3708 252° West 446 513 40,000  Level Denver Center
11:39AM 39.1975 -100.5189 255° West 447 514 40,000  Level Denver Center
11:40AM 39.1617 -100.6897 255° West 443 510 40,000  Level Denver Center
11:41AM 39.1292 -100.8372 254° West 447 514 40,000  Level Denver Center
11:42AM 39.0914 -101.0111 254° West 451 519 40,000  Level Denver Center
11:43AM 39.0650 -101.1350 255° West 451 519 40,000  Level Denver Center
11:44AM 39.0272 -101.3061 254° West 445 512 40,000  Level Denver Center
11:45AM 38.9897 -101.4772 254° West 444 511 40,000  Level Denver Center
11:46AM 38.9631 -101.5994 254° West 445 512 40,000  Level Denver Center
11:47AM 38.9208 -101.7931 254° West 441 507 40,000  Level Denver Center
11:48AM 38.8864 -101.9375 253° West 442 509 40,000  Level Denver Center
11:49AM 38.8517 -102.0925 254° West 444 511 40,000  Level Denver Center
11:50AM 38.8133 -102.2611 254° West 442 509 40,000  Level Denver Center
11:51AM 38.7806 -102.4050 254° West 441 507 40,000  Level Denver Center
11:52AM 38.7375 -102.5689 251° West 438 504 40,000  Level Denver Center
11:53AM 38.6769 -102.6983 239° Southwest 443 510 40,000  Level Denver Center
11:54AM 38.6064 -102.8444 238° Southwest 442 509 40,000  Level Denver Center
11:55AM 38.5253 -103.0153 239° Southwest 436 502 40,000  Level Denver Center
11:56AM 38.4653 -103.1439 239° Southwest 439 505 40,000  Level Denver Center
11:58AM 38.4042 -103.2706 238° Southwest 439 505 40,000  Level Denver Center
11:59AM 38.3233 -103.4397 239° Southwest 439 505 40,000  Level Denver Center
12:00PM 38.2511 -103.5878 238° Southwest 441 507 40,000  Level Denver Center
12:01PM 38.1900 -103.7128 238° Southwest 438 504 40,000  Level Denver Center
12:02PM 38.1078 -103.8811 238° Southwest 439 505 40,000  Level Denver Center
12:03PM 38.0367 -104.0272 238° Southwest 438 504 40,000  Level Denver Center
12:04PM 37.9856 -104.1325 238° Southwest 440 506 40,000  Level Denver Center
12:05PM 37.9239 -104.2569 238° Southwest 439 505 40,000  Level Denver Center
12:06PM 37.8411 -104.4233 238° Southwest 441 507 40,000  Level Denver Center
12:07PM 37.7589 -104.5889 238° Southwest 439 505 40,000  Level Denver Center
12:08PM 37.6964 -104.7117 237° Southwest 435 501 40,000  Level Denver Center
12:09PM 37.6236 -104.8581 238° Southwest 441 507 40,000  Level Denver Center
12:10PM 37.5614 -104.9814 238° Southwest 438 504 40,000  Level Denver Center
12:12PM 37.4872 -105.1264 237° Southwest 440 506 40,000  Level Denver Center
12:13PM 37.4197 -105.2589 237° Southwest 440 506 40,000  Level Denver Center
12:14PM 37.3569 -105.3819 237° Southwest 438 504 40,000  Level Denver Center
12:15PM 37.2828 -105.5267 237° Southwest 440 506 40,000  Level Denver Center
12:16PM 37.2117 -105.6608 236° Southwest 440 506 40,000  Level Denver Center
12:17PM 37.1497 -105.7853 238° Southwest 440 506 40,000  Level Denver Center
12:18PM 37.0800 -105.9147 236° Southwest 438 504 40,000  Level Denver Center
12:19PM 37.0125 -106.0489 238° Southwest 437 503 40,000  Level Denver Center
12:20PM 36.9425 -106.1772 236° Southwest 435 501 40,000  Level Denver Center
12:21PM 36.8706 -106.3200 238° Southwest 434 499 40,000  Level Denver Center
12:22PM 36.8061 -106.4411 236° Southwest 437 503 40,000  Level Denver Center
12:23PM 36.7311 -106.5811 236° Southwest 436 502 40,000  Level Denver Center
12:24PM 36.6569 -106.7247 237° Southwest 440 506 40,000  Level Denver Center
12:25PM 36.5828 -106.8644 237° Southwest 436 502 40,000  Level Denver Center
12:26PM 36.5175 -106.9858 236° Southwest 439 505 40,000  Level Denver Center
12:27PM 36.4417 -107.1244 236° Southwest 436 502 40,000  Level Denver Center
12:28PM 36.3778 -107.2433 236° Southwest 433 498 40,000  Level Denver Center
12:29PM 36.3147 -107.3639 237° Southwest 432 497 40,000  Level Albuquerque Center
12:30PM 36.2503 -107.4811 236° Southwest 430 495 40,000  Level Albuquerque Center
12:31PM 36.1753 -107.6175 236° Southwest 428 493 40,000  Level Albuquerque Center
12:32PM 36.1117 -107.7350 236° Southwest 428 493 40,000  Level Albuquerque Center
12:33PM 36.0372 -107.8711 236° Southwest 427 491 40,000  Level Albuquerque Center
12:34PM 35.9733 -107.9878 236° Southwest 427 491 40,000  Level Albuquerque Center
12:35PM 35.8964 -108.1253 235° Southwest 431 496 40,000  Level Albuquerque Center
12:36PM 35.8228 -108.2369 231° Southwest 434 499 40,000  Level Albuquerque Center
12:37PM 35.7475 -108.3475 230° Southwest 436 502 40,000  Level Albuquerque Center
12:38PM 35.6594 -108.4772 230° Southwest 438 504 40,000  Level Albuquerque Center
12:40PM 35.5839 -108.5889 230° Southwest 441 507 40,000  Level Albuquerque Center
12:41PM 35.4972 -108.7172 230° Southwest 437 503 40,000  Level Albuquerque Center
12:42PM 35.4225 -108.8269 230° Southwest 435 501 40,000  Level Albuquerque Center
12:43PM 35.3358 -108.9547 230° Southwest 435 501 40,000  Level Albuquerque Center
12:44PM 35.2625 -109.0617 230° Southwest 430 495 40,000 -540 Level Albuquerque Center
12:45PM 35.1892 -109.1675 230° Southwest 427 491 39,000 -1,020 Descending Albuquerque Center
12:46PM 35.1031 -109.2933 230° Southwest 429 494 38,000 -540 Descending Albuquerque Center
12:47PM 35.0294 -109.4014 230° Southwest 430 495 38,000 -720 Level Albuquerque Center
12:48PM 34.9428 -109.5242 229° Southwest 428 493 36,600 -1,020 Descending Albuquerque Center
12:49PM 34.8700 -109.6294 230° Southwest 425 489 36,000 -300 Descending Albuquerque Center
12:50PM 34.7850 -109.7508 230° Southwest 421 484 36,000  Level Albuquerque Center
12:51PM 34.7136 -109.8575 231° Southwest 423 487 36,000  Level Albuquerque Center
12:52PM 34.6572 -110.0042 245° Southwest 425 489 36,000  Level Albuquerque Center
12:53PM 34.6106 -110.1289 246° West 425 489 36,000  Level Albuquerque Center
12:54PM 34.5628 -110.2544 245° Southwest 426 490 36,000 -1,200 Level Albuquerque Center
12:55PM 34.5072 -110.3997 245° Southwest 424 488 33,600 -1,560 Descending Albuquerque Center
12:56PM 34.4639 -110.5208 247° West 425 489 32,900 -1,620 Descending Albuquerque Center
12:57PM 34.4133 -110.6508 245° Southwest 427 491 30,400 -2,400 Descending Albuquerque Center
12:58PM 34.3536 -110.7992 244° Southwest 413 475 28,000 -2,040 Descending Albuquerque Center
12:59PM 34.2781 -110.8975 227° Southwest 399 459 26,300 -1,800 Descending Albuquerque Center
01:00PM 34.2031 -110.9933 227° Southwest 396 456 24,300 -1,980 Descending Albuquerque Center
01:01PM 34.1303 -111.0853 226° Southwest 384 442 22,300 -1,980 Descending Albuquerque Center
01:02PM 34.0606 -111.1742 227° Southwest 373 429 20,300 -1,980 Descending Albuquerque Center
01:03PM 33.9928 -111.2633 227° Southwest 363 418 18,300 -2,040 Descending Albuquerque Center
01:04PM 33.9244 -111.3511 227° Southwest 358 412 16,200 -1,800 Descending Albuquerque Center
01:05PM 33.8536 -111.4564 231° Southwest 333 383 14,700 -1,560 Descending Albuquerque Center
01:06PM 33.8075 -111.5461 238° Southwest 316 364 13,000 -1,620 Descending Albuquerque Center
01:07PM 33.7608 -111.6336 237° Southwest 308 354 11,400 -1,440 Descending Albuquerque Center
01:08PM 33.7156 -111.7178 237° Southwest 299 344 10,100 -720 Descending Albuquerque Center
01:09PM 33.6761 -111.7903 237° Southwest 262 302 10,000 -420 Descending Albuquerque Center
01:10PM 33.6397 -111.8575 237° Southwest 242 278 9,300 -480 Descending Albuquerque Center
01:12PM 33.6022 -111.9233 236° Southwest 239 275 9,100 -600 Descending Albuquerque Center
01:13PM 33.5389 -111.9497 199° South 258 297 8,100 -1,020 Descending Albuquerque Center
01:14PM 33.5228 -112.0242 255° West 244 281 7,000 -540 Descending Albuquerque Center
01:15PM 33.5258 -112.1067 273° West 203 234 7,000 -480 Level Albuquerque Center
01:16PM 33.5286 -112.1683 273° West 188 216 6,100 -1,020 Descending Albuquerque Center
01:17PM 33.4958 -112.1972 216° Southwest 189 217 4,900 -1,260 Descending Albuquerque Center
01:18PM 33.4606 -112.1508 132° Southeast 190 219 3,600 -1,320 Descending Albuquerque Center
01:19PM 33.4403 -112.1011 116° Southeast 180 207 2,300 -1,080 Descending Albuquerque Center
01:20PM 33.4333 -112.0333 97° East 142 163 1,300 -900 Descending Phoenix TRACON